Terminal Aerodrome Forecast
Issued by NWS

Home | Current Version | Previous Version | Text Only | Print | Product List | Glossary Off
Versions: 1 2 3 4 5 6 7 8 9 10 11 12 13 14 15 16 17 18

000
FTUS43 KGRB 300520
TAFATW
TAF
KATW 300520Z 3006/0106 31006KT P6SM VCSH SCT015 BKN100
      TEMPO 3006/3010 3SM BR
     FM301000 33007KT 6SM BR BKN012 BKN035
      TEMPO 3010/3014 3SM BR BKN006
     FM301500 36008KT P6SM BKN020 BKN035
     FM301800 36011KT P6SM BKN035
     FM010000 36007KT P6SM SKC=

USA.gov is the U.S. government's official web portal to all federal, state and local government web resources and services.